Time;durP1;ratioP1;P1;durP2;ratioP2;P2;SDS_P1;SDS_P2;PMS_P1;PMS_P2;Temp;Humidity;BMP_temperature;BMP_pressure;BME280_temperature;BME280_humidity;BME280_pressure;Samples;Min_cycle;Max_cycle;Signal;HPM_P1;HPM_P2
2021/07/16 00:01:25;;;;;;;19.73;10.00;;;;;;;27.79;51.74;99468.27;1628641;86;21075;-72
2021/07/16 00:03:51;;;;;;;11.40;9.48;;;;;;;27.80;51.66;99467.11;1667118;85;21772;-72
2021/07/16 00:06:19;;;;;;;14.90;9.85;;;;;;;27.80;51.70;99469.07;1672616;85;21036;-73
2021/07/16 00:08:45;;;;;;;14.43;10.45;;;;;;;27.80;51.70;99471.25;1665396;85;21029;-71
2021/07/16 00:11:13;;;;;;;12.75;9.58;;;;;;;27.72;52.09;99465.41;1647429;85;21065;-74
2021/07/16 00:13:40;;;;;;;10.25;9.35;;;;;;;27.64;52.21;99467.23;1635818;85;21032;-74
2021/07/16 00:16:08;;;;;;;11.97;8.93;;;;;;;27.66;52.03;99465.48;1674509;85;21183;-70
2021/07/16 00:18:34;;;;;;;11.80;8.58;;;;;;;27.64;52.08;99470.58;1673465;85;21108;-72
2021/07/16 00:21:02;;;;;;;11.38;8.70;;;;;;;27.60;52.20;99470.52;1649839;85;21155;-72
2021/07/16 00:23:29;;;;;;;12.05;9.38;;;;;;;27.61;52.24;99470.75;1647208;87;21083;-73
2021/07/16 00:25:55;;;;;;;11.50;8.80;;;;;;;27.63;52.22;99478.06;1651553;85;21100;-71
2021/07/16 00:28:22;;;;;;;8.80;8.00;;;;;;;27.65;52.21;99477.70;1674249;85;21161;-71
2021/07/16 00:30:50;;;;;;;10.20;9.25;;;;;;;27.63;52.27;99473.92;1656163;85;21417;-72
2021/07/16 00:33:16;;;;;;;17.30;9.43;;;;;;;27.55;52.55;99476.36;1647418;86;21032;-73
2021/07/16 00:35:43;;;;;;;15.28;8.68;;;;;;;27.48;52.69;99467.13;1649010;85;21052;-73
2021/07/16 00:38:09;;;;;;;12.15;9.60;;;;;;;27.37;52.99;99467.51;1674476;85;21073;-73
2021/07/16 00:40:35;;;;;;;10.30;9.20;;;;;;;27.29;53.20;99470.13;1652000;85;21517;-73
2021/07/16 00:43:02;;;;;;;11.15;9.23;;;;;;;27.22;53.48;99466.45;1647214;86;20961;-75
2021/07/16 00:45:28;;;;;;;10.08;9.08;;;;;;;27.18;53.36;99469.73;1659595;86;21070;-71
2021/07/16 00:47:54;;;;;;;15.00;9.95;;;;;;;27.21;53.32;99467.61;1630832;85;21105;-74
2021/07/16 00:50:31;;;;;;;12.13;8.55;;;;;;;27.27;53.18;99470.30;1638427;86;21621;-72
2021/07/16 00:52:58;;;;;;;16.07;9.23;;;;;;;27.28;52.88;99463.61;1615724;87;21549;-73
2021/07/16 00:55:25;;;;;;;12.30;9.05;;;;;;;27.27;52.67;99468.91;1615766;88;20980;-72
2021/07/16 00:57:52;;;;;;;10.10;9.05;;;;;;;27.23;52.81;99464.71;1597547;88;21036;-74
2021/07/16 01:00:18;;;;;;;14.70;8.20;;;;;;;27.22;52.73;99463.11;1607229;87;21048;-72
2021/07/16 01:02:45;;;;;;;24.35;9.40;;;;;;;27.26;52.51;99461.20;1648825;85;21037;-71
2021/07/16 01:05:14;;;;;;;10.13;8.65;;;;;;;27.24;52.60;99464.13;1653789;86;21144;-71
2021/07/16 01:07:41;;;;;;;13.43;8.70;;;;;;;27.20;52.70;99456.34;1665081;85;21082;-73
2021/07/16 01:10:10;;;;;;;12.18;9.40;;;;;;;27.14;53.12;99454.48;1644603;85;20977;-71
2021/07/16 01:12:38;;;;;;;9.53;8.40;;;;;;;27.10;52.95;99447.30;1624908;86;21005;-71
2021/07/16 01:15:07;;;;;;;10.68;9.68;;;;;;;27.08;52.94;99453.75;1652008;85;21548;-70
2021/07/16 01:17:35;;;;;;;10.25;9.25;;;;;;;27.04;53.24;99444.61;1616305;88;21065;-70
2021/07/16 01:20:12;;;;;;;11.70;7.95;;;;;;;27.01;53.32;99442.56;1634195;86;21512;-72
2021/07/16 01:22:40;;;;;;;12.37;8.65;;;;;;;26.99;53.07;99449.05;1602217;88;21046;-72
2021/07/16 01:25:13;;;;;;;9.68;8.25;;;;;;;26.98;53.22;99441.34;1575539;90;21697;-73
2021/07/16 01:27:40;;;;;;;9.73;8.30;;;;;;;26.95;53.55;99444.84;1581705;89;21014;-72
2021/07/16 01:30:09;;;;;;;9.48;8.58;;;;;;;26.95;53.29;99438.52;1641919;87;21108;-71
2021/07/16 01:32:37;;;;;;;9.20;8.10;;;;;;;27.00;53.09;99441.79;1651445;86;21537;-73
2021/07/16 01:35:05;;;;;;;9.33;8.05;;;;;;;27.01;53.03;99441.18;1651454;86;20960;-72
2021/07/16 01:37:32;;;;;;;7.67;7.00;;;;;;;27.01;52.98;99433.70;1642482;87;21048;-72
2021/07/16 01:40:04;;;;;;;8.60;7.80;;;;;;;27.03;52.81;99436.11;1668233;85;22257;-73
2021/07/16 01:42:39;;;;;;;12.28;8.98;;;;;;;27.04;52.79;99435.75;1599360;88;21118;-72
2021/07/16 01:45:11;;;;;;;10.08;9.15;;;;;;;26.96;52.92;99436.76;1641790;86;21529;-72
2021/07/16 01:47:42;;;;;;;9.85;8.70;;;;;;;26.96;52.84;99439.52;1623298;87;21070;-73
2021/07/16 01:50:09;;;;;;;11.43;8.40;;;;;;;26.97;52.79;99434.80;1624693;86;21053;-73
2021/07/16 01:52:36;;;;;;;14.78;7.80;;;;;;;26.92;53.01;99434.52;1624807;86;21052;-73
2021/07/16 01:55:04;;;;;;;11.30;8.38;;;;;;;26.91;53.01;99428.00;1651305;86;21085;-74
2021/07/16 01:57:30;;;;;;;11.18;8.60;;;;;;;26.94;52.83;99419.78;1651519;86;21660;-73
2021/07/16 01:59:57;;;;;;;8.98;8.08;;;;;;;26.93;52.90;99419.55;1630800;86;21128;-73
2021/07/16 02:02:23;;;;;;;12.75;8.55;;;;;;;26.94;53.12;99418.98;1651668;85;22015;-73
2021/07/16 02:04:50;;;;;;;8.95;7.50;;;;;;;26.94;53.21;99416.22;1642610;87;21080;-72
2021/07/16 02:07:16;;;;;;;12.55;9.18;;;;;;;26.87;53.61;99415.48;1642315;87;23303;-73
2021/07/16 02:09:44;;;;;;;16.20;9.18;;;;;;;26.77;54.06;99413.28;1641759;87;20981;-73
2021/07/16 02:12:11;;;;;;;24.72;10.40;;;;;;;26.67;54.45;99412.48;1641926;87;21126;-72
2021/07/16 02:14:39;;;;;;;15.68;9.90;;;;;;;26.62;54.76;99408.06;1616041;88;21013;-74
2021/07/16 02:17:05;;;;;;;16.17;10.63;;;;;;;26.59;54.95;99408.00;1615695;87;21057;-73
2021/07/16 02:19:35;;;;;;;9.20;8.25;;;;;;;26.63;54.68;99409.67;1628479;85;21144;-73
2021/07/16 02:22:06;;;;;;;12.00;8.58;;;;;;;26.56;55.18;99408.16;1651091;86;20956;-73
2021/07/16 02:24:34;;;;;;;10.65;9.18;;;;;;;26.53;55.41;99398.41;1651516;86;21553;-71
2021/07/16 02:27:04;;;;;;;12.68;9.35;;;;;;;26.48;55.74;99400.30;1653062;85;20999;-72
2021/07/16 02:29:33;;;;;;;14.20;10.05;;;;;;;26.46;55.93;99404.02;1650776;86;21690;-73
2021/07/16 02:32:01;;;;;;;11.40;10.30;;;;;;;26.44;56.09;99403.57;1623317;87;21356;-72
2021/07/16 02:34:30;;;;;;;9.70;8.50;;;;;;;26.38;56.41;99404.20;1651676;86;20980;-72
2021/07/16 02:36:55;;;;;;;11.30;8.83;;;;;;;26.44;56.17;99411.04;1667976;85;21443;-73
2021/07/16 02:39:22;;;;;;;16.23;9.18;;;;;;;26.40;56.32;99404.08;1654987;85;21185;-73
2021/07/16 02:41:48;;;;;;;16.37;9.83;;;;;;;26.38;56.45;99407.77;1643414;87;21518;-73
2021/07/16 02:44:15;;;;;;;10.03;8.98;;;;;;;26.39;56.54;99420.41;1622640;87;39898;-72
2021/07/16 02:46:42;;;;;;;16.93;9.15;;;;;;;26.38;56.65;99421.56;1624602;87;21563;-72
2021/07/16 02:49:09;;;;;;;9.60;8.60;;;;;;;26.35;56.72;99422.30;1645967;86;21040;-72
2021/07/16 02:51:37;;;;;;;13.90;10.08;;;;;;;26.31;56.90;99421.42;1647158;86;21023;-72
2021/07/16 02:54:04;;;;;;;17.57;9.70;;;;;;;26.29;57.07;99416.03;1658868;85;21029;-72
2021/07/16 02:56:30;;;;;;;14.43;9.38;;;;;;;26.24;57.24;99414.94;1633014;86;21971;-71
2021/07/16 02:58:57;;;;;;;10.15;9.23;;;;;;;26.19;57.46;99417.37;1669427;85;20969;-72
2021/07/16 03:01:23;;;;;;;13.18;9.78;;;;;;;26.15;57.66;99423.39;1644213;85;21047;-73
2021/07/16 03:03:49;;;;;;;10.78;9.68;;;;;;;26.13;57.79;99416.65;1623992;87;21044;-71
2021/07/16 03:06:15;;;;;;;10.20;9.15;;;;;;;26.10;58.00;99419.53;1645460;86;21075;-72
2021/07/16 03:08:44;;;;;;;14.20;9.93;;;;;;;26.04;58.16;99423.14;1626568;86;21002;-72
2021/07/16 03:11:12;;;;;;;12.00;10.28;;;;;;;26.02;58.36;99434.31;1666568;85;20973;-72
2021/07/16 03:13:38;;;;;;;14.58;9.98;;;;;;;26.00;58.59;99431.11;1669488;85;21502;-72
2021/07/16 03:16:07;;;;;;;11.30;10.15;;;;;;;25.99;58.70;99435.81;1665389;85;21073;-73
2021/07/16 03:18:35;;;;;;;19.07;9.75;;;;;;;25.98;58.88;99433.44;1641532;87;21007;-71
2021/07/16 03:21:01;;;;;;;16.07;9.60;;;;;;;25.95;59.04;99439.07;1625191;86;21275;-73
2021/07/16 03:23:27;;;;;;;10.90;9.65;;;;;;;25.92;59.23;99438.42;1651619;86;21548;-73
2021/07/16 03:25:54;;;;;;;11.28;10.18;;;;;;;25.92;59.35;99437.63;1652753;85;21008;-72
2021/07/16 03:28:21;;;;;;;12.05;10.72;;;;;;;25.92;59.67;99447.27;1634178;86;21060;-73
2021/07/16 03:30:47;;;;;;;12.05;10.38;;;;;;;25.90;59.92;99439.95;1615765;88;20972;-73
2021/07/16 03:33:14;;;;;;;12.58;10.82;;;;;;;25.88;60.33;99443.63;1624925;88;21283;-72
2021/07/16 03:35:41;;;;;;;10.03;9.13;;;;;;;25.87;60.39;99444.20;1644833;85;21039;-72
2021/07/16 03:38:08;;;;;;;11.03;9.93;;;;;;;25.87;60.50;99452.47;1639949;86;21052;-73
2021/07/16 03:40:34;;;;;;;18.70;10.30;;;;;;;25.86;60.80;99448.69;1669541;84;21068;-73
2021/07/16 03:43:00;;;;;;;11.05;9.63;;;;;;;25.86;61.02;99452.83;1640971;86;20953;-72
2021/07/16 03:45:27;;;;;;;12.28;10.15;;;;;;;25.85;61.28;99452.02;1628014;87;21088;-73
2021/07/16 03:47:53;;;;;;;13.28;9.48;;;;;;;25.87;61.50;99455.23;1628028;86;21621;-72
2021/07/16 03:50:20;;;;;;;14.83;9.85;;;;;;;25.88;61.70;99455.45;1604025;88;21020;-72
2021/07/16 03:52:48;;;;;;;14.45;11.40;;;;;;;25.88;61.91;99460.97;1598775;89;21553;-72
2021/07/16 03:55:15;;;;;;;14.40;9.90;;;;;;;25.91;61.99;99453.92;1595527;88;21052;-71
2021/07/16 03:57:43;;;;;;;11.25;9.43;;;;;;;25.94;62.01;99456.79;1591825;87;21280;-71
2021/07/16 04:00:12;;;;;;;10.85;9.68;;;;;;;25.98;61.95;99456.30;1605823;88;21087;-73
2021/07/16 04:02:39;;;;;;;16.40;10.50;;;;;;;26.04;61.64;99459.58;1624742;88;21080;-72
2021/07/16 04:05:06;;;;;;;16.87;9.28;;;;;;;26.08;61.58;99463.79;1624263;88;20964;-74
2021/07/16 04:07:34;;;;;;;20.55;10.23;;;;;;;26.12;61.22;99468.22;1627268;87;21020;-73
2021/07/16 04:10:01;;;;;;;13.48;10.10;;;;;;;26.18;60.86;99472.31;1651197;86;21235;-72
2021/07/16 04:12:28;;;;;;;11.45;9.38;;;;;;;26.23;60.23;99472.06;1632040;87;21008;-71
2021/07/16 04:14:55;;;;;;;10.85;8.98;;;;;;;26.29;60.17;99478.88;1651163;86;20953;-72
2021/07/16 04:17:23;;;;;;;10.93;9.40;;;;;;;26.34;59.62;99470.91;1634773;86;20968;-72
2021/07/16 04:19:52;;;;;;;11.73;9.75;;;;;;;26.43;59.61;99478.39;1626283;87;21035;-71
2021/07/16 04:22:19;;;;;;;11.73;8.43;;;;;;;26.48;59.53;99473.97;1651213;86;21234;-72
2021/07/16 04:24:46;;;;;;;9.90;9.00;;;;;;;26.54;59.18;99475.30;1651065;86;21257;-72
2021/07/16 04:27:13;;;;;;;14.87;8.53;;;;;;;26.60;59.03;99473.86;1630251;86;21003;-72
2021/07/16 04:29:40;;;;;;;10.03;9.08;;;;;;;26.66;58.94;99479.31;1605841;88;21085;-72
2021/07/16 04:32:07;;;;;;;10.78;9.15;;;;;;;26.71;58.86;99480.41;1624551;88;21079;-74
2021/07/16 04:34:36;;;;;;;15.25;10.45;;;;;;;26.77;58.74;99486.41;1624587;88;21048;-71
2021/07/16 04:37:05;;;;;;;12.43;10.00;;;;;;;26.81;58.50;99480.41;1618076;88;21154;-72
2021/07/16 04:39:32;;;;;;;11.80;10.38;;;;;;;26.85;58.52;99483.46;1606134;88;21039;-73
2021/07/16 04:42:00;;;;;;;16.75;10.30;;;;;;;26.89;58.61;99484.36;1605933;88;21012;-72
2021/07/16 04:44:26;;;;;;;10.35;8.88;;;;;;;26.94;58.67;99487.98;1606161;88;21035;-73
2021/07/16 04:46:53;;;;;;;11.85;9.45;;;;;;;26.97;58.75;99485.87;1625672;87;21201;-73
2021/07/16 04:49:19;;;;;;;11.10;10.00;;;;;;;26.97;58.88;99488.05;1654449;86;21413;-73
2021/07/16 04:51:45;;;;;;;12.18;10.45;;;;;;;26.98;58.99;99482.75;1632289;86;21554;-73
2021/07/16 04:54:14;;;;;;;13.13;9.45;;;;;;;27.00;59.22;99479.64;1651189;86;21068;-73
2021/07/16 04:56:41;;;;;;;18.62;12.37;;;;;;;27.00;59.22;99484.58;1616863;87;21561;-71
2021/07/16 04:59:07;;;;;;;20.43;11.65;;;;;;;27.02;59.31;99487.76;1621330;87;22152;-73
2021/07/16 05:01:33;;;;;;;12.63;11.33;;;;;;;27.04;59.44;99490.97;1649386;86;20961;-73
2021/07/16 05:04:00;;;;;;;14.68;11.40;;;;;;;27.07;59.45;99483.91;1631755;87;21072;-73
2021/07/16 05:06:26;;;;;;;14.20;11.90;;;;;;;27.08;59.62;99488.27;1637851;86;20972;-72
2021/07/16 05:08:54;;;;;;;12.95;9.08;;;;;;;27.09;59.80;99492.05;1606140;88;21084;-72
2021/07/16 05:11:20;;;;;;;14.90;11.95;;;;;;;27.12;60.29;99487.17;1624580;88;21085;-72
2021/07/16 05:13:48;;;;;;;13.20;10.80;;;;;;;27.17;60.07;99491.59;1592752;87;21029;-73
2021/07/16 05:16:15;;;;;;;15.45;12.93;;;;;;;27.21;60.09;99488.31;1630257;87;21482;-72
2021/07/16 05:18:43;;;;;;;13.83;12.47;;;;;;;27.25;59.95;99494.70;1651198;86;20989;-72
2021/07/16 05:21:11;;;;;;;27.02;14.75;;;;;;;27.26;59.95;99491.59;1631902;87;21052;-72
2021/07/16 05:23:38;;;;;;;13.48;12.28;;;;;;;27.31;60.02;99491.29;1651199;87;22005;-73
2021/07/16 05:26:04;;;;;;;18.37;13.95;;;;;;;27.36;60.09;99491.56;1642061;87;21111;-72
2021/07/16 05:28:30;;;;;;;15.65;13.10;;;;;;;27.37;60.48;99490.41;1625018;86;21017;-72
2021/07/16 05:30:56;;;;;;;18.57;14.15;;;;;;;27.34;60.96;99493.88;1609478;87;21068;-72
2021/07/16 05:33:23;;;;;;;17.70;12.73;;;;;;;27.41;60.94;99494.03;1628182;87;20980;-72
2021/07/16 05:35:50;;;;;;;22.58;14.95;;;;;;;27.45;60.64;99499.03;1630428;87;22000;-73
2021/07/16 05:38:17;;;;;;;22.70;14.50;;;;;;;27.47;60.42;99486.24;1631909;87;21528;-72
2021/07/16 05:40:44;;;;;;;20.52;13.58;;;;;;;27.50;60.32;99483.56;1629488;86;21077;-72
2021/07/16 05:43:12;;;;;;;20.37;13.53;;;;;;;27.59;60.36;99481.36;1624746;87;21004;-73
2021/07/16 05:45:40;;;;;;;14.95;13.35;;;;;;;27.68;60.17;99480.52;1631537;86;21043;-72
2021/07/16 05:48:12;;;;;;;20.15;16.20;;;;;;;27.75;60.19;99484.80;1623213;87;21118;-74
2021/07/16 05:50:40;;;;;;;20.82;15.63;;;;;;;27.83;60.17;99480.76;1642184;87;21033;-73
2021/07/16 05:53:07;;;;;;;21.02;16.07;;;;;;;27.89;60.03;99482.05;1644226;86;21066;-73
2021/07/16 05:55:34;;;;;;;16.00;14.28;;;;;;;27.95;60.12;99481.38;1648722;85;21044;-74
2021/07/16 05:58:01;;;;;;;18.55;15.72;;;;;;;27.98;60.36;99488.12;1629826;85;21072;-73
2021/07/16 06:00:28;;;;;;;16.12;14.63;;;;;;;27.99;60.77;99491.91;1669279;86;21770;-73
2021/07/16 06:02:55;;;;;;;24.80;16.77;;;;;;;28.02;61.32;99498.06;1626752;86;21025;-73
2021/07/16 06:05:22;;;;;;;20.12;17.62;;;;;;;28.02;62.54;99498.64;1675109;85;21033;-73
2021/07/16 06:07:48;;;;;;;25.23;18.05;;;;;;;28.00;62.88;99497.66;1651174;85;21030;-73
2021/07/16 06:10:15;;;;;;;20.30;17.82;;;;;;;28.00;62.76;99500.42;1643527;86;21204;-73
2021/07/16 06:12:44;;;;;;;20.88;18.82;;;;;;;27.99;63.40;99502.97;1678087;84;22226;-72
2021/07/16 06:15:11;;;;;;;20.17;18.10;;;;;;;27.97;64.01;99503.91;1624586;88;21754;-73
2021/07/16 06:17:39;;;;;;;18.10;16.40;;;;;;;27.94;64.34;99501.89;1635357;86;21519;-73
2021/07/16 06:20:07;;;;;;;20.48;18.27;;;;;;;27.93;64.25;99500.29;1669319;85;22923;-73
2021/07/16 06:22:34;;;;;;;22.52;19.25;;;;;;;27.93;64.58;99502.25;1678893;85;21009;-72
2021/07/16 06:25:01;;;;;;;24.07;18.57;;;;;;;27.92;64.37;99499.27;1626119;86;21402;-74
2021/07/16 06:27:27;;;;;;;19.15;17.25;;;;;;;27.92;64.78;99503.41;1651939;85;20965;-72
2021/07/16 06:29:55;;;;;;;25.57;18.02;;;;;;;27.89;64.88;99499.44;1676615;85;21152;-71
2021/07/16 06:32:23;;;;;;;21.05;18.75;;;;;;;27.90;64.90;99498.86;1678697;85;21092;-72
2021/07/16 06:34:50;;;;;;;27.07;20.62;;;;;;;27.91;65.30;99499.08;1678957;85;21001;-73
2021/07/16 06:37:16;;;;;;;21.37;19.15;;;;;;;27.88;65.62;99501.98;1678918;85;21228;-73
2021/07/16 06:39:43;;;;;;;20.25;18.23;;;;;;;27.86;65.66;99500.19;1678674;85;21111;-72
2021/07/16 06:42:10;;;;;;;20.43;18.48;;;;;;;27.85;65.65;99507.46;1624974;88;21023;-74
2021/07/16 06:44:36;;;;;;;25.60;17.50;;;;;;;27.86;65.86;99498.81;1615922;88;21609;-73
2021/07/16 06:47:04;;;;;;;32.30;19.15;;;;;;;27.96;65.82;99504.30;1631072;87;21599;-73
2021/07/16 06:49:32;;;;;;;20.92;18.40;;;;;;;28.06;65.60;99510.56;1688394;85;20964;-73
2021/07/16 06:51:59;;;;;;;31.93;19.00;;;;;;;28.15;65.30;99512.54;1663848;85;20964;-72
2021/07/16 06:54:25;;;;;;;21.75;19.17;;;;;;;28.22;65.21;99513.21;1661618;86;21036;-73
2021/07/16 06:56:53;;;;;;;21.77;19.50;;;;;;;28.32;64.87;99515.34;1675759;85;21739;-73
2021/07/16 06:59:20;;;;;;;20.27;18.30;;;;;;;28.42;64.76;99510.56;1689242;85;21051;-74
2021/07/16 07:01:47;;;;;;;21.80;19.23;;;;;;;28.53;64.26;99508.17;1666461;85;21528;-74
2021/07/16 07:04:13;;;;;;;31.23;21.90;;;;;;;28.63;63.72;99512.25;1637824;85;21556;-75
2021/07/16 07:06:40;;;;;;;25.40;20.88;;;;;;;28.68;63.69;99511.89;1689353;85;21586;-73
2021/07/16 07:09:07;;;;;;;20.77;18.67;;;;;;;28.69;63.71;99504.39;1689461;85;22282;-73
2021/07/16 07:11:33;;;;;;;27.27;18.75;;;;;;;28.64;63.67;99505.52;1669342;85;21020;-74
2021/07/16 07:14:01;;;;;;;21.93;18.23;;;;;;;28.70;63.23;99501.27;1661630;86;21064;-72
2021/07/16 07:16:27;;;;;;;19.00;16.07;;;;;;;28.74;62.96;99508.25;1661602;86;21537;-72
2021/07/16 07:18:54;;;;;;;22.40;19.48;;;;;;;28.76;62.08;99505.92;1662273;84;21071;-73
2021/07/16 07:21:20;;;;;;;17.23;15.78;;;;;;;28.80;61.67;99503.41;1661509;86;21088;-73
2021/07/16 07:23:46;;;;;;;19.12;17.02;;;;;;;28.81;61.72;99509.74;1661779;85;21007;-72
2021/07/16 07:26:12;;;;;;;20.85;17.10;;;;;;;28.82;61.76;99504.42;1689336;85;21936;-72
2021/07/16 07:28:39;;;;;;;20.37;18.05;;;;;;;28.91;61.97;99510.47;1667384;85;21012;-73
2021/07/16 07:31:05;;;;;;;22.00;19.57;;;;;;;28.98;61.84;99505.80;1635021;86;21565;-73
2021/07/16 07:33:32;;;;;;;20.52;16.57;;;;;;;29.07;61.72;99506.89;1661576;86;21119;-73
2021/07/16 07:35:58;;;;;;;19.73;16.97;;;;;;;29.08;61.63;99511.84;1661537;86;21091;-73
2021/07/16 07:38:26;;;;;;;19.77;17.82;;;;;;;29.06;61.50;99509.47;1676269;85;23381;-73
2021/07/16 07:40:53;;;;;;;18.90;17.00;;;;;;;29.08;61.37;99514.02;1635139;86;21048;-73
2021/07/16 07:43:20;;;;;;;18.37;16.73;;;;;;;29.13;61.56;99515.08;1661850;85;21482;-72
2021/07/16 07:45:48;;;;;;;17.07;15.48;;;;;;;29.13;61.47;99515.66;1656845;86;21612;-73
2021/07/16 07:48:14;;;;;;;17.48;14.45;;;;;;;29.13;60.81;99518.43;1647209;86;21089;-74
2021/07/16 07:50:40;;;;;;;23.35;15.88;;;;;;;29.18;59.89;99526.41;1658419;86;21113;-73
2021/07/16 07:53:07;;;;;;;17.02;15.35;;;;;;;29.28;59.08;99518.80;1652353;86;21682;-73
2021/07/16 07:55:33;;;;;;;15.00;12.20;;;;;;;29.44;58.32;99533.27;1613009;87;21549;-73
2021/07/16 07:57:59;;;;;;;18.52;14.25;;;;;;;29.50;56.36;99528.96;1645738;86;22030;-72
2021/07/16 08:00:26;;;;;;;17.67;12.85;;;;;;;29.55;56.29;99531.98;1635245;86;21236;-74
2021/07/16 08:02:53;;;;;;;17.35;14.47;;;;;;;29.62;56.30;99524.55;1603972;88;21517;-74
2021/07/16 08:05:21;;;;;;;18.15;15.15;;;;;;;29.68;56.46;99527.19;1628861;86;21059;-74
2021/07/16 08:07:47;;;;;;;19.17;15.30;;;;;;;29.70;56.96;99527.58;1658772;86;21013;-73
2021/07/16 08:10:17;;;;;;;18.37;16.45;;;;;;;29.76;56.96;99533.00;1635332;86;21544;-73
2021/07/16 08:12:44;;;;;;;18.82;16.02;;;;;;;29.70;57.21;99526.20;1658493;86;21052;-73
2021/07/16 08:15:12;;;;;;;19.67;15.55;;;;;;;29.76;57.28;99525.27;1657997;86;21524;-74
2021/07/16 08:17:39;;;;;;;15.80;14.10;;;;;;;29.86;56.88;99524.56;1658202;86;21517;-73
2021/07/16 08:20:08;;;;;;;17.45;15.90;;;;;;;29.92;56.40;99530.00;1634609;86;21157;-71
2021/07/16 08:22:37;;;;;;;25.37;16.65;;;;;;;29.97;56.32;99526.88;1631669;87;21059;-73
2021/07/16 08:25:05;;;;;;;30.32;17.12;;;;;;;30.06;56.13;99530.71;1631182;88;20960;-71
2021/07/16 08:27:32;;;;;;;17.17;15.40;;;;;;;30.17;55.91;99529.59;1631484;88;21189;-72
2021/07/16 08:29:59;;;;;;;18.15;16.40;;;;;;;30.24;54.68;99523.31;1655876;86;20952;-72
2021/07/16 08:32:25;;;;;;;16.20;14.60;;;;;;;30.24;54.10;99521.92;1604172;88;21007;-73
2021/07/16 08:34:52;;;;;;;13.98;12.47;;;;;;;30.29;53.99;99524.34;1631609;87;21067;-74
2021/07/16 08:37:18;;;;;;;14.20;12.78;;;;;;;30.37;53.70;99525.97;1604027;88;21044;-73
2021/07/16 08:39:44;;;;;;;16.27;13.45;;;;;;;30.51;53.32;99523.31;1637959;86;21184;-73
2021/07/16 08:42:13;;;;;;;14.95;13.38;;;;;;;30.62;52.74;99528.34;1603873;88;21044;-73
2021/07/16 08:44:43;;;;;;;13.62;12.23;;;;;;;30.70;52.66;99529.97;1604745;88;21137;-74
2021/07/16 08:47:10;;;;;;;16.60;13.40;;;;;;;30.75;52.46;99528.80;1622473;86;21116;-73
2021/07/16 08:49:39;;;;;;;12.30;11.05;;;;;;;30.82;52.64;99518.34;1635634;86;21091;-73
2021/07/16 08:52:07;;;;;;;24.02;12.75;;;;;;;30.96;52.10;99529.50;1687567;85;21246;-75
2021/07/16 08:54:37;;;;;;;14.43;12.58;;;;;;;31.08;51.37;99527.81;1689479;84;21078;-74
2021/07/16 08:57:01;;;;;;;19.32;14.07;;;;;;;31.15;51.03;99533.38;1689246;85;21019;-76
2021/07/16 08:59:29;;;;;;;16.23;13.05;;;;;;;31.16;51.35;99529.42;1669599;84;21004;-76
2021/07/16 09:01:56;;;;;;;16.90;13.72;;;;;;;31.20;51.09;99519.11;1679464;85;21063;-74
2021/07/16 09:04:23;;;;;;;16.15;13.50;;;;;;;31.28;50.92;99522.11;1661678;86;21187;-76
2021/07/16 09:06:55;;;;;;;15.50;11.12;;;;;;;31.38;50.25;99524.12;1667316;85;21561;-73
2021/07/16 09:09:26;;;;;;;18.10;11.43;;;;;;;31.46;49.90;99521.55;1687353;84;20973;-72
2021/07/16 09:11:56;;;;;;;17.75;12.95;;;;;;;31.54;49.66;99519.59;1686297;84;21028;-74
2021/07/16 09:14:30;;;;;;;15.93;12.05;;;;;;;31.57;49.00;99516.84;1663780;85;22414;-72
2021/07/16 09:17:09;;;;;;;15.13;10.75;;;;;;;31.60;48.92;99526.39;1657592;85;21079;-76
2021/07/16 09:19:48;;;;;;;12.90;11.53;;;;;;;31.67;48.81;99522.22;1656110;85;21604;-73
2021/07/16 09:22:20;;;;;;;14.60;12.60;;;;;;;31.81;48.13;99519.45;1650701;86;21586;-76
2021/07/16 09:24:53;;;;;;;21.37;12.43;;;;;;;31.89;47.09;99526.63;1683610;84;21607;-77
2021/07/16 09:27:40;;;;;;;12.58;10.85;;;;;;;31.99;47.01;99527.82;1658268;86;21027;-76
2021/07/16 09:30:24;;;;;;;15.00;12.78;;;;;;;32.06;46.87;99530.59;1638760;85;21065;-78
2021/07/16 09:32:54;;;;;;;13.32;11.95;;;;;;;32.11;46.88;99525.25;1643492;86;21033;-77
2021/07/16 09:35:33;;;;;;;12.25;11.20;;;;;;;32.19;46.63;99517.08;1661856;86;21043;-78
2021/07/16 09:38:14;;;;;;;16.40;11.95;;;;;;;32.24;46.48;99512.50;1661800;84;21041;-74
2021/07/16 09:40:47;;;;;;;10.70;9.60;;;;;;;32.17;45.56;99509.16;1689937;84;21599;-78
2021/07/16 09:43:17;;;;;;;11.10;10.10;;;;;;;32.15;45.45;99505.16;1673022;85;21881;-78
2021/07/16 09:45:53;;;;;;;11.95;10.72;;;;;;;32.16;45.41;99506.76;1661800;85;20995;-78
2021/07/16 09:48:29;;;;;;;13.25;10.15;;;;;;;32.22;44.91;99505.17;1632914;86;21540;-78
2021/07/16 09:51:20;;;;;;;11.12;9.78;;;;;;;32.24;44.81;99508.33;1636671;87;21076;-80
2021/07/16 09:54:03;;;;;;;15.23;11.00;;;;;;;32.29;44.38;99505.14;1609655;87;21054;-72
2021/07/16 09:56:33;;;;;;;13.05;10.35;;;;;;;32.34;44.62;99507.52;1651211;87;21147;-70
2021/07/16 09:59:14;;;;;;;11.57;9.85;;;;;;;32.41;44.39;99511.70;1649190;86;21534;-72
2021/07/16 10:01:42;;;;;;;9.98;9.00;;;;;;;32.41;44.12;99506.92;1632768;86;21048;-71
2021/07/16 10:04:33;;;;;;;10.45;9.30;;;;;;;32.33;43.97;99503.94;1625025;86;21510;-75
2021/07/16 10:06:55;;;;;;;11.28;10.25;;;;;;;32.29;44.02;99511.50;1629196;87;21007;-75
2021/07/16 10:09:24;;;;;;;16.27;10.85;;;;;;;32.25;44.13;99509.33;1649173;87;20960;-75
2021/07/16 10:11:55;;;;;;;11.53;10.35;;;;;;;32.25;43.92;99507.94;1651104;86;20933;-73
2021/07/16 10:14:21;;;;;;;15.90;10.75;;;;;;;32.26;44.14;99511.52;1635351;86;21581;-78
2021/07/16 10:16:51;;;;;;;16.80;12.30;;;;;;;32.33;44.07;99499.77;1623292;88;21000;-75
2021/07/16 10:19:18;;;;;;;14.38;12.60;;;;;;;32.42;44.12;99499.38;1643615;86;21083;-77
2021/07/16 10:21:47;;;;;;;13.15;11.15;;;;;;;32.51;43.92;99497.55;1627126;87;21571;-76
2021/07/16 10:24:20;;;;;;;13.18;9.68;;;;;;;32.56;43.74;99502.12;1594459;86;21083;-74
2021/07/16 10:26:50;;;;;;;12.37;11.28;;;;;;;32.60;43.56;99509.06;1651103;86;21112;-72
2021/07/16 10:29:45;;;;;;;22.82;11.10;;;;;;;32.61;43.63;99502.30;1635979;87;21112;-72
2021/07/16 10:32:12;;;;;;;10.80;9.60;;;;;;;32.61;43.37;99501.70;1624849;88;21071;-72
2021/07/16 10:34:39;;;;;;;15.28;12.65;;;;;;;32.51;43.07;99496.96;1624622;88;21089;-73
2021/07/16 10:37:13;;;;;;;12.00;9.53;;;;;;;32.50;43.31;99498.75;1626482;87;21035;-85
2021/07/16 10:39:52;;;;;;;13.95;9.88;;;;;;;32.56;42.88;99491.58;1636213;86;21032;-71
2021/07/16 10:42:35;;;;;;;9.93;7.78;;;;;;;32.64;42.58;99488.39;1651270;86;21036;-68
2021/07/16 10:45:04;;;;;;;17.65;9.50;;;;;;;32.64;41.80;99488.39;1649056;86;21023;-70
2021/07/16 10:47:36;;;;;;;11.12;10.10;;;;;;;32.64;41.60;99487.59;1642358;86;21112;-70
2021/07/16 10:50:04;;;;;;;;;;;;;;;32.77;37.51;99481.77;1663400;85;20985;-69
2021/07/16 10:52:50;;;;;;;10.15;9.15;;;;;;;32.84;38.30;99476.17;1672079;85;20171;-70
2021/07/16 10:55:32;;;;;;;11.05;8.63;;;;;;;32.87;39.46;99475.36;1672037;85;21024;-71
2021/07/16 10:57:59;;;;;;;12.68;8.73;;;;;;;32.90;38.32;99469.59;1670451;85;21217;-70
2021/07/16 11:00:43;;;;;;;12.63;7.17;;;;;;;33.04;39.13;99473.10;1583350;88;21250;-69
2021/07/16 11:03:13;;;;;;;15.28;8.53;;;;;;;33.17;38.68;99467.28;1664381;85;21005;-70
2021/07/16 11:05:48;;;;;;;11.50;7.80;;;;;;;33.25;38.37;99470.80;1644464;85;21081;-74
2021/07/16 11:08:39;;;;;;;12.18;8.13;;;;;;;33.26;38.12;99474.59;1664613;85;21012;-75
2021/07/16 11:11:10;;;;;;;8.85;7.95;;;;;;;33.35;38.30;99460.19;1644682;87;21564;-75
2021/07/16 11:13:48;;;;;;;8.25;7.25;;;;;;;33.57;37.62;99452.48;1619602;87;21775;-76
2021/07/16 11:16:27;;;;;;;18.92;8.95;;;;;;;33.69;37.14;99455.58;1618033;87;21604;-72
2021/07/16 11:19:10;;;;;;;9.73;8.83;;;;;;;33.73;37.23;99470.30;1656172;85;20993;-71
2021/07/16 11:21:47;;;;;;;12.80;8.25;;;;;;;33.82;36.98;99469.81;1666071;85;20996;-71
2021/07/16 11:24:22;;;;;;;8.08;6.80;;;;;;;34.00;37.17;99469.67;1627328;85;21063;-80
2021/07/16 11:27:11;;;;;;;9.30;7.10;;;;;;;34.09;36.54;99463.01;1672056;85;20998;-77
2021/07/16 11:29:46;;;;;;;17.23;8.43;;;;;;;34.14;35.79;99456.98;1651993;85;21519;-77